Time;durP1;ratioP1;P1;durP2;ratioP2;P2;SDS_P1;SDS_P2;PMS_P1;PMS_P2;Temp;Humidity;BMP_temperature;BMP_pressure;BME280_temperature;BME280_humidity;BME280_pressure;Samples;Min_cycle;Max_cycle;Signal;HPM_P1;HPM_P2
2022/01/19 00:02:08;;;;;;;9.80;6.40;;;;;;;5.15;75.33;101935.41;6213204;23;20737;-77
2022/01/19 00:04:33;;;;;;;7.30;6.65;;;;;;;5.29;75.34;101955.41;6187652;23;20003;-78
2022/01/19 00:07:04;;;;;;;6.78;6.13;;;;;;;5.30;75.65;101949.78;6138440;23;20015;-78
2022/01/19 00:09:29;;;;;;;7.45;5.93;;;;;;;5.40;75.74;101966.56;6187960;23;20012;-79
2022/01/19 00:11:55;;;;;;;5.82;5.43;;;;;;;5.39;75.37;101964.06;6188084;23;20328;-77
2022/01/19 00:14:20;;;;;;;11.35;6.40;;;;;;;5.38;75.64;101952.34;6163716;23;20012;-76
2022/01/19 00:16:46;;;;;;;6.28;5.70;;;;;;;5.38;75.42;101957.75;6161873;23;20025;-77
2022/01/19 00:19:21;;;;;;;8.80;6.45;;;;;;;5.41;75.75;101956.53;6188783;23;20083;-77
2022/01/19 00:21:52;;;;;;;6.60;6.03;;;;;;;5.37;75.15;101953.41;6174796;23;20017;-76
2022/01/19 00:24:20;;;;;;;8.85;6.78;;;;;;;5.48;74.51;101978.31;6202811;23;20025;-76
2022/01/19 00:26:51;;;;;;;6.13;5.53;;;;;;;5.35;75.34;101952.72;6192449;23;20033;-76
2022/01/19 00:29:19;;;;;;;11.10;6.28;;;;;;;5.51;75.13;101988.78;6183865;23;20032;-74
2022/01/19 00:31:44;;;;;;;6.45;5.85;;;;;;;5.41;74.48;101951.13;6182399;23;20009;-77
2022/01/19 00:34:12;;;;;;;8.43;5.47;;;;;;;5.49;74.65;101961.00;6157647;23;20040;-77
2022/01/19 00:36:43;;;;;;;5.70;4.95;;;;;;;5.54;75.34;101953.94;6181806;23;20438;-79
2022/01/19 00:39:15;;;;;;;5.45;4.85;;;;;;;5.56;75.24;101948.31;6182548;23;20005;-78
2022/01/19 00:41:40;;;;;;;9.63;6.45;;;;;;;5.66;75.30;101943.41;6179701;23;20092;-76
2022/01/19 00:44:10;;;;;;;7.32;5.13;;;;;;;5.57;74.52;101922.88;6182311;23;20025;-75
2022/01/19 00:46:36;;;;;;;11.32;6.05;;;;;;;5.62;74.90;101923.13;6182266;23;20001;-75
2022/01/19 00:49:07;;;;;;;12.82;6.18;;;;;;;5.67;74.85;101923.38;6181904;23;20009;-77
2022/01/19 00:51:34;;;;;;;8.15;5.95;;;;;;;5.65;74.63;101908.31;6157751;23;20035;-76
2022/01/19 00:54:00;;;;;;;6.53;5.90;;;;;;;5.75;74.91;101914.25;6182120;23;20040;-76
2022/01/19 00:56:27;;;;;;;11.77;7.43;;;;;;;5.70;75.04;101900.44;6182159;23;20005;-75
2022/01/19 00:58:52;;;;;;;7.18;5.57;;;;;;;5.63;74.91;101883.25;6157007;23;20020;-77
2022/01/19 01:01:18;;;;;;;8.10;6.00;;;;;;;5.69;74.18;101899.56;6182255;23;20029;-75
2022/01/19 01:03:43;;;;;;;10.40;5.63;;;;;;;5.69;74.79;101910.44;6182354;23;20007;-75
2022/01/19 01:06:09;;;;;;;12.95;6.28;;;;;;;5.68;74.54;101914.22;6155536;23;20057;-75
2022/01/19 01:08:34;;;;;;;6.05;5.45;;;;;;;5.68;74.59;101908.78;6154665;23;20020;-76
2022/01/19 01:11:09;;;;;;;4.53;4.25;;;;;;;5.75;74.88;101915.09;6156969;23;20309;-78
2022/01/19 01:16:58;;;;;;;4.05;3.67;;;;;;;5.89;75.16;101929.59;6206505;23;20261;-76
2022/01/19 01:19:28;;;;;;;3.00;2.90;;;;;;;5.86;74.71;101911.00;6212749;23;20011;-78
2022/01/19 01:22:04;;;;;;;;;;;;;;;;;;;;;
2022/01/19 01:24:29;;;;;;;2.67;2.58;;;;;;;5.98;74.69;101886.88;6212647;23;20471;-78
2022/01/19 01:26:55;;;;;;;3.78;2.00;;;;;;;5.92;74.52;101866.75;6160946;23;20035;-75
2022/01/19 01:29:21;;;;;;;3.20;2.80;;;;;;;6.00;74.74;101857.66;6185805;23;20012;-78
2022/01/19 01:31:48;;;;;;;4.55;4.05;;;;;;;5.96;74.17;101823.75;6184709;23;20016;-77
2022/01/19 01:35:18;;;;;;;3.60;3.40;;;;;;;6.14;74.69;101839.53;6187512;23;20005;-73
2022/01/19 01:37:46;;;;;;;6.88;5.25;;;;;;;6.02;74.54;101817.53;6187255;23;20008;-76
2022/01/19 01:40:24;;;;;;;;;;;;;;;;;;;;;
2022/01/19 01:42:51;;;;;;;11.30;6.75;;;;;;;6.13;73.42;101828.88;6210611;23;20072;-75
2022/01/19 01:45:18;;;;;;;5.60;5.18;;;;;;;6.08;72.98;101827.59;6185579;23;20032;-75
2022/01/19 01:47:49;;;;;;;5.57;5.15;;;;;;;5.93;73.51;101818.72;6165908;23;20009;-76
2022/01/19 01:53:26;;;;;;;;;;;;;;;6.05;73.45;101838.88;6211280;23;20015;-76
2022/01/19 01:56:25;;;;;;;5.18;4.75;;;;;;;5.95;73.60;101811.22;6185708;23;19958;-76
2022/01/19 01:59:01;;;;;;;;;;;;;;;;;;;;;
2022/01/19 02:01:40;;;;;;;;;;;;;;;;;;;;;
2022/01/19 02:04:08;;;;;;;1.67;1.52;;;;;;;6.03;73.46;101821.94;6211532;23;20087;-75
2022/01/19 02:06:54;;;;;;;4.20;2.45;;;;;;;6.00;73.96;101797.91;6213646;23;20063;-75
2022/01/19 02:09:25;;;;;;;;;;;;;;;6.10;73.47;101809.22;6164766;23;20012;-74
2022/01/19 02:25:57;;;;;;;4.10;3.80;;;;;;;5.98;73.58;101761.94;6185935;23;20013;-75
2022/01/19 02:31:51;;;;;;;3.47;3.17;;;;;;;6.12;73.30;101784.59;6211002;23;20008;-74
2022/01/19 02:40:11;;;;;;;4.35;3.95;;;;;;;6.21;72.64;101777.09;6204447;23;20013;-74
2022/01/19 02:43:27;;;;;;;4.72;4.32;;;;;;;6.09;72.90;101757.84;6159739;23;20017;-74
2022/01/19 02:50:38;;;;;;;5.55;4.75;;;;;;;6.04;72.63;101744.84;6211111;23;20066;-74
2022/01/19 02:53:04;;;;;;;5.97;5.25;;;;;;;6.00;72.82;101737.31;6180915;23;20351;-74
2022/01/19 02:55:32;;;;;;;6.38;5.82;;;;;;;5.98;72.48;101737.50;6185178;23;20030;-74
2022/01/19 02:58:05;;;;;;;4.85;4.45;;;;;;;6.01;72.55;101745.25;6209932;23;20009;-73
2022/01/19 03:09:12;;;;;;;6.10;5.40;;;;;;;5.89;73.18;101719.72;6147147;23;20036;-74
2022/01/19 03:11:40;;;;;;;7.90;5.10;;;;;;;5.85;72.48;101713.81;6173982;23;20004;-74
2022/01/19 03:14:08;;;;;;;6.38;5.82;;;;;;;5.82;72.13;101714.25;6185854;23;20008;-74
2022/01/19 03:16:35;;;;;;;5.93;5.38;;;;;;;5.88;72.00;101734.31;6183438;23;20024;-74
2022/01/19 03:19:11;;;;;;;;;;;;;;;;;;;;;
2022/01/19 03:21:39;;;;;;;15.05;8.15;;;;;;;5.80;73.18;101734.47;6209742;23;20519;-74
2022/01/19 03:24:21;;;;;;;;;;;;;;;;;;;;;
2022/01/19 03:26:59;;;;;;;;;;;;;;;;;;;;;
2022/01/19 03:29:25;;;;;;;11.73;6.30;;;;;;;5.55;73.37;101699.72;6213538;23;20080;-76
2022/01/19 03:32:07;;;;;;;12.43;6.70;;;;;;;5.66;72.74;101723.56;6161944;23;20036;-75
2022/01/19 03:34:35;;;;;;;10.35;6.93;;;;;;;5.52;74.00;101705.53;6181561;23;20001;-75
2022/01/19 03:37:11;;;;;;;8.43;6.70;;;;;;;5.59;73.91;101715.41;6210298;23;20423;-75
2022/01/19 03:39:39;;;;;;;7.57;6.20;;;;;;;5.57;73.39;101705.78;6164118;23;20439;-75
2022/01/19 03:42:12;;;;;;;13.70;6.85;;;;;;;5.36;73.70;101676.84;6183292;23;20009;-75
2022/01/19 03:44:39;;;;;;;17.23;6.53;;;;;;;5.36;74.10;101676.84;6180851;23;19996;-75
2022/01/19 03:47:07;;;;;;;13.57;7.35;;;;;;;5.48;74.61;101691.53;6187465;23;20035;-75
2022/01/19 03:49:36;;;;;;;13.30;6.55;;;;;;;5.53;75.00;101705.34;6161840;23;20012;-75
2022/01/19 03:52:25;;;;;;;9.90;6.47;;;;;;;5.55;75.58;101697.03;6187433;23;20430;-78
2022/01/19 03:55:17;;;;;;;13.80;6.75;;;;;;;5.47;74.84;101689.03;6187669;23;20015;-78
2022/01/19 03:57:46;;;;;;;11.20;7.38;;;;;;;5.54;75.25;101701.59;6214991;23;20056;-76
2022/01/19 04:00:14;;;;;;;14.77;6.53;;;;;;;5.48;76.06;101690.72;6211508;23;20458;-75
2022/01/19 04:02:40;;;;;;;10.10;6.40;;;;;;;5.33;75.35;101667.28;6186615;23;20012;-76
2022/01/19 04:05:37;;;;;;;8.80;7.50;;;;;;;5.38;75.50;101675.63;6185099;23;20008;-76
2022/01/19 04:08:04;;;;;;;16.90;7.75;;;;;;;5.54;75.99;101707.00;6205706;23;20005;-75
2022/01/19 04:10:44;;;;;;;;;;;;;;;;;;;;;
2022/01/19 04:13:57;;;;;;;13.65;6.65;;;;;;;5.55;75.78;101713.31;6182120;23;20390;-74
2022/01/19 04:16:05;;;;;;;8.88;7.93;;;;;;;5.48;75.85;101707.00;6210237;23;20025;-74
2022/01/19 04:18:30;;;;;;;17.63;8.07;;;;;;;5.40;75.45;101695.28;6184977;23;20079;-74
2022/01/19 04:21:01;;;;;;;14.73;8.68;;;;;;;5.25;75.83;101675.56;6185252;23;20039;-74
2022/01/19 04:23:34;;;;;;;10.20;7.63;;;;;;;5.44;76.70;101695.69;6186215;23;20491;-74
2022/01/19 04:26:00;;;;;;;13.63;8.32;;;;;;;5.30;76.57;101677.66;6159512;23;20008;-75
2022/01/19 04:28:25;;;;;;;18.27;8.90;;;;;;;5.16;76.98;101660.50;6212699;23;20126;-75
2022/01/19 04:30:53;;;;;;;10.13;8.00;;;;;;;5.29;76.85;101676.03;6183967;23;20068;-74
2022/01/19 04:33:23;;;;;;;14.13;7.97;;;;;;;5.26;77.20;101671.81;6185848;23;20431;-74
2022/01/19 04:36:19;;;;;;;12.80;8.60;;;;;;;5.19;77.07;101671.78;6162112;23;20031;-74
2022/01/19 04:44:12;;;;;;;11.60;7.82;;;;;;;5.25;77.03;101659.28;6186620;23;20092;-74
2022/01/19 05:01:40;;;;;;;20.20;8.65;;;;;;;4.79;77.34;101595.63;6187583;23;20023;-74
2022/01/19 05:05:33;;;;;;;21.92;9.18;;;;;;;4.59;77.91;101598.19;6209313;23;20018;-76
2022/01/19 05:08:10;;;;;;;13.32;9.30;;;;;;;4.63;78.39;101613.03;6186606;23;20017;-75
2022/01/19 05:16:14;;;;;;;11.60;7.15;;;;;;;4.57;78.52;101608.41;6196965;23;20017;-78
2022/01/19 05:18:39;;;;;;;13.05;8.48;;;;;;;4.67;79.24;101617.03;6158807;23;20031;-77
2022/01/19 05:21:07;;;;;;;13.77;6.72;;;;;;;4.72;78.70;101611.00;6213882;23;20404;-77
2022/01/19 05:23:33;;;;;;;9.05;7.88;;;;;;;4.79;78.51;101608.31;6185464;23;20000;-77
2022/01/19 05:25:58;;;;;;;13.23;7.88;;;;;;;4.87;78.31;101619.03;6182180;23;20009;-77
2022/01/19 05:28:24;;;;;;;19.45;8.63;;;;;;;4.92;78.41;101611.16;6184603;23;20470;-77
2022/01/19 05:30:51;;;;;;;15.30;8.50;;;;;;;5.07;78.94;101622.69;6213641;23;20016;-77
2022/01/19 05:33:17;;;;;;;13.98;8.07;;;;;;;5.04;78.43;101604.13;6184344;23;20312;-77
2022/01/19 05:35:42;;;;;;;12.20;8.30;;;;;;;5.07;78.35;101611.84;6170557;23;20003;-77
2022/01/19 05:38:08;;;;;;;10.82;7.90;;;;;;;5.12;78.85;101610.41;6209999;23;19999;-76
2022/01/19 05:40:34;;;;;;;11.70;8.00;;;;;;;5.11;77.84;101568.91;6207867;23;20009;-76
2022/01/19 05:42:59;;;;;;;9.00;6.47;;;;;;;5.08;77.76;101569.28;6220091;23;19996;-78
2022/01/19 05:45:25;;;;;;;12.98;7.88;;;;;;;5.02;78.00;101584.50;6185991;23;20028;-76
2022/01/19 05:47:53;;;;;;;16.75;8.93;;;;;;;4.89;78.02;101585.28;6216387;23;20000;-77
2022/01/19 05:50:21;;;;;;;10.23;9.07;;;;;;;4.90;78.11;101575.25;6187494;23;20077;-78
2022/01/19 05:52:51;;;;;;;15.00;9.35;;;;;;;4.89;78.51;101593.41;6185185;23;20278;-76
2022/01/19 05:55:21;;;;;;;14.60;9.23;;;;;;;4.77;78.12;101573.31;6187562;23;20416;-77
2022/01/19 05:57:56;;;;;;;14.55;9.57;;;;;;;4.77;78.53;101588.72;6162948;23;20012;-78
2022/01/19 06:00:31;;;;;;;23.53;10.40;;;;;;;4.60;79.48;101586.34;6164288;23;20094;-77
2022/01/19 06:02:57;;;;;;;15.45;10.25;;;;;;;4.59;79.81;101579.25;6187960;23;20232;-78
2022/01/19 06:05:22;;;;;;;19.02;11.13;;;;;;;4.77;79.60;101596.88;6162860;23;20051;-77
2022/01/19 06:07:49;;;;;;;22.63;9.65;;;;;;;4.85;79.28;101580.47;6163775;23;20008;-77
2022/01/19 06:10:42;;;;;;;17.17;9.57;;;;;;;4.93;78.96;101561.28;6185941;23;20012;-78
2022/01/19 06:13:00;;;;;;;15.75;10.68;;;;;;;5.00;79.59;101555.91;6215307;23;20509;-79
2022/01/19 06:15:26;;;;;;;19.95;9.30;;;;;;;5.00;79.19;101545.91;6214132;23;20020;-76
2022/01/19 06:17:54;;;;;;;11.77;9.23;;;;;;;5.12;78.52;101539.91;6164283;23;20339;-77
2022/01/19 06:20:20;;;;;;;14.15;9.43;;;;;;;5.17;79.03;101532.84;6161585;23;20423;-78
2022/01/19 06:22:45;;;;;;;13.52;9.63;;;;;;;5.23;78.47;101536.63;6163322;23;20015;-77
2022/01/19 06:25:11;;;;;;;20.40;10.95;;;;;;;5.18;78.63;101528.25;6184748;23;20012;-78
2022/01/19 06:27:39;;;;;;;24.83;11.23;;;;;;;5.22;78.56;101530.34;6184690;23;20062;-76
2022/01/19 06:30:08;;;;;;;21.17;10.45;;;;;;;5.30;78.66;101542.91;6212394;23;20054;-75
2022/01/19 06:32:39;;;;;;;15.82;10.80;;;;;;;5.27;78.89;101537.91;6158796;23;20143;-74
2022/01/19 06:35:05;;;;;;;17.65;10.63;;;;;;;5.20;78.53;101539.75;6161550;23;20011;-76
2022/01/19 06:37:41;;;;;;;27.00;11.05;;;;;;;5.12;78.53;101529.06;6159821;23;20009;-76
2022/01/19 06:40:09;;;;;;;14.65;9.98;;;;;;;5.12;78.73;101529.06;6213030;23;20083;-76
2022/01/19 06:42:34;;;;;;;13.52;10.13;;;;;;;5.25;78.36;101546.19;6188451;23;20039;-76
2022/01/19 06:45:02;;;;;;;25.40;10.23;;;;;;;5.18;78.80;101530.97;6185006;23;20001;-75
2022/01/19 06:47:27;;;;;;;16.52;9.93;;;;;;;5.22;78.37;101548.50;6185581;23;20416;-75
2022/01/19 06:49:53;;;;;;;20.35;11.02;;;;;;;5.18;78.12;101525.53;6185349;23;20027;-76
2022/01/19 06:52:19;;;;;;;18.77;10.32;;;;;;;5.19;78.32;101521.78;6181892;23;20004;-76
2022/01/19 06:55:01;;;;;;;19.30;10.52;;;;;;;5.19;78.06;101502.81;6162970;23;20053;-76
2022/01/19 06:57:32;;;;;;;25.38;11.00;;;;;;;5.17;78.62;101515.72;6164649;23;20012;-76
2022/01/19 07:00:00;;;;;;;23.52;10.15;;;;;;;5.02;77.90;101497.75;6183539;23;20008;-76
2022/01/19 07:02:28;;;;;;;19.27;11.18;;;;;;;4.99;78.03;101498.13;6187217;23;20443;-76
2022/01/19 07:05:01;;;;;;;15.65;9.80;;;;;;;5.10;78.00;101509.47;6163624;23;20012;-74
2022/01/19 07:07:26;;;;;;;24.00;10.07;;;;;;;4.95;77.83;101494.19;6214925;23;20000;-76
2022/01/19 07:09:52;;;;;;;16.55;8.77;;;;;;;4.96;78.42;101505.84;6214658;23;20004;-77
2022/01/19 07:12:27;;;;;;;;;;;;;;;;;;;;;
2022/01/19 07:14:55;;;;;;;19.58;10.57;;;;;;;4.71;78.12;101490.09;6214138;23;20107;-78
2022/01/19 07:17:21;;;;;;;10.80;8.13;;;;;;;4.63;77.82;101496.53;6187660;23;20367;-77
2022/01/19 07:19:47;;;;;;;18.45;9.90;;;;;;;4.57;78.37;101504.59;6165454;23;20012;-78
2022/01/19 07:22:20;;;;;;;20.00;9.43;;;;;;;4.39;78.00;101488.88;6187250;23;20009;-76
2022/01/19 07:24:53;;;;;;;11.02;8.27;;;;;;;4.31;78.53;101482.59;6189717;23;20203;-74
2022/01/19 07:27:19;;;;;;;9.18;8.05;;;;;;;4.29;78.66;101476.53;6213830;23;20009;-75
2022/01/19 07:29:47;;;;;;;17.38;8.85;;;;;;;4.31;79.11;101477.16;6163333;23;20117;-75
2022/01/19 07:32:22;;;;;;;15.50;9.18;;;;;;;4.46;79.22;101481.63;6187248;23;20059;-77
2022/01/19 07:34:47;;;;;;;11.85;8.98;;;;;;;4.43;79.49;101460.38;6188280;23;20044;-76
2022/01/19 07:37:15;;;;;;;11.40;8.88;;;;;;;4.62;78.99;101475.88;6214725;23;20332;-76
2022/01/19 07:39:50;;;;;;;10.32;8.70;;;;;;;4.60;79.53;101461.72;6160905;23;20008;-74
2022/01/19 07:42:36;;;;;;;14.10;8.50;;;;;;;4.75;79.02;101474.28;6215692;23;20300;-76
2022/01/19 07:45:02;;;;;;;11.07;8.35;;;;;;;4.74;79.05;101467.19;6214033;23;20627;-76
2022/01/19 07:47:30;;;;;;;11.32;8.23;;;;;;;4.62;78.43;101454.22;6215038;23;20004;-77
2022/01/19 07:50:05;;;;;;;10.10;8.00;;;;;;;4.60;79.36;101453.59;6185911;23;20011;-78
2022/01/19 07:52:31;;;;;;;16.30;8.23;;;;;;;4.57;79.40;101459.41;6213899;23;20075;-75
2022/01/19 07:54:56;;;;;;;16.10;9.32;;;;;;;4.59;79.51;101476.28;6186778;23;20588;-77
2022/01/19 07:57:27;;;;;;;11.25;9.10;;;;;;;4.47;79.79;101467.06;6162544;23;20090;-77
2022/01/19 07:59:53;;;;;;;14.23;9.77;;;;;;;4.33;80.55;101469.66;6186563;23;20008;-76
2022/01/19 08:02:22;;;;;;;8.75;7.95;;;;;;;4.30;80.27;101461.94;6186357;23;20506;-75
2022/01/19 08:04:57;;;;;;;;;;;;;;;;;;;;;
2022/01/19 08:07:46;;;;;;;14.10;9.52;;;;;;;4.52;80.21;101486.25;6188289;23;20079;-76
2022/01/19 08:10:46;;;;;;;;;;;;;;;;;;;;;
2022/01/19 08:13:03;;;;;;;9.70;7.82;;;;;;;4.67;80.37;101484.25;6203500;23;20047;-79
2022/01/19 08:15:33;;;;;;;13.52;8.90;;;;;;;4.61;80.90;101463.38;6182551;23;20505;-78
2022/01/19 08:18:02;;;;;;;12.43;8.38;;;;;;;4.71;80.41;101460.28;6187162;23;20305;-77
2022/01/19 08:20:28;;;;;;;10.48;8.00;;;;;;;4.95;80.04;101479.78;6186257;23;20016;-78
2022/01/19 08:22:53;;;;;;;12.52;7.25;;;;;;;4.95;80.09;101458.94;6162117;23;20091;-78
2022/01/19 08:25:19;;;;;;;11.38;7.88;;;;;;;5.00;79.83;101455.63;6161293;23;20429;-77
2022/01/19 08:27:50;;;;;;;12.52;8.70;;;;;;;5.05;79.29;101445.84;6185820;23;20036;-79
2022/01/19 08:30:20;;;;;;;13.98;8.20;;;;;;;5.22;79.44;101459.00;6181741;23;20008;-78
2022/01/19 08:32:48;;;;;;;8.07;7.28;;;;;;;5.22;78.95;101431.88;6187450;23;20001;-78
2022/01/19 08:35:17;;;;;;;10.50;6.93;;;;;;;5.47;79.63;101459.25;6160525;23;20008;-78
2022/01/19 08:37:50;;;;;;;9.65;7.13;;;;;;;5.60;78.59;101466.56;6185968;23;20015;-78
2022/01/19 08:54:51;;;;;;;;;;;;;;;;;;;;;
2022/01/19 11:21:49;;;;;;;4.57;3.40;;;;;;;8.42;79.52;101482.44;5871546;24;20014;-77
2022/01/19 16:21:15;;;;;;;2.72;0.50;;;;;;;8.74;60.93;101510.44;6198017;22;20040;-74
2022/01/19 16:26:28;;;;;;;0.40;0.30;;;;;;;8.34;61.60;101513.56;6243395;23;20015;-74
2022/01/19 16:28:56;;;;;;;0.88;0.30;;;;;;;8.16;61.52;101498.84;6213302;23;20062;-75
2022/01/19 16:31:24;;;;;;;1.23;0.50;;;;;;;8.28;61.55;101528.91;6214275;23;20007;-74
2022/01/19 16:34:00;;;;;;;2.28;0.50;;;;;;;8.04;61.11;101516.94;6217631;23;20481;-75
2022/01/19 16:36:28;;;;;;;0.28;0.20;;;;;;;7.94;61.86;101503.81;6242890;23;20031;-78
2022/01/19 16:38:54;;;;;;;4.13;0.32;;;;;;;8.03;61.45;101528.88;6215066;23;20026;-74
2022/01/19 16:41:34;;;;;;;;;;;;;;;;;;;;;
2022/01/19 16:44:05;;;;;;;0.30;0.20;;;;;;;7.94;61.35;101547.41;6244382;23;20087;-74
2022/01/19 16:46:33;;;;;;;0.80;0.45;;;;;;;7.89;62.57;101565.47;6214472;23;20084;-72
2022/01/19 16:49:07;;;;;;;1.65;0.47;;;;;;;7.82;62.45;101560.91;6216051;23;20035;-75
2022/01/19 16:51:36;;;;;;;1.20;0.20;;;;;;;7.74;62.30;101553.00;6241760;23;20399;-74
2022/01/19 16:54:30;;;;;;;1.90;0.30;;;;;;;7.67;62.73;101555.75;6244257;23;20083;-74
2022/01/19 16:57:31;;;;;;;1.33;0.47;;;;;;;7.61;62.87;101559.38;6207256;23;20012;-74
2022/01/19 19:08:55;;;;;;;;;;;;;;;;;;;;;
2022/01/19 19:12:05;;;;;;;3.60;0.68;;;;;;;5.42;65.93;101752.88;6234661;23;20039;-74
2022/01/19 20:00:31;;;;;;;0.77;0.73;;;;;;;5.12;67.06;101800.22;6184262;23;20022;-77
2022/01/19 20:02:56;;;;;;;3.90;0.98;;;;;;;5.24;67.25;101817.63;6183712;23;20056;-76
2022/01/19 20:05:27;;;;;;;4.55;0.88;;;;;;;5.22;67.20;101817.00;6162730;23;20009;-75
2022/01/19 20:07:55;;;;;;;4.20;0.63;;;;;;;5.27;67.81;101822.69;6171366;23;20068;-75
2022/01/19 20:10:34;;;;;;;1.45;0.73;;;;;;;5.13;67.12;101807.34;6173141;23;19988;-74
2022/01/19 20:13:00;;;;;;;1.00;0.40;;;;;;;5.14;67.81;101812.56;6145064;23;20009;-76
2022/01/19 20:15:25;;;;;;;1.00;0.60;;;;;;;5.24;67.42;101842.03;6171750;23;20383;-73
2022/01/19 20:18:00;;;;;;;1.58;0.35;;;;;;;5.04;67.13;101818.31;6156982;23;20095;-72
2022/01/19 20:20:31;;;;;;;0.65;0.57;;;;;;;5.13;67.21;101850.72;6178530;23;20005;-74
2022/01/19 20:22:57;;;;;;;1.63;0.57;;;;;;;5.03;67.88;101824.75;6153764;23;20100;-73
2022/01/19 20:25:23;;;;;;;2.20;0.50;;;;;;;5.07;67.87;101831.47;6156346;23;20008;-74
2022/01/19 20:27:52;;;;;;;1.77;0.70;;;;;;;4.95;67.50;101826.75;6155725;23;20017;-74
2022/01/19 20:30:26;;;;;;;0.93;0.35;;;;;;;4.96;67.64;101829.28;6131760;23;20036;-73
2022/01/19 20:32:51;;;;;;;3.05;0.47;;;;;;;4.91;67.84;101820.91;6155098;23;20092;-73
2022/01/19 20:35:17;;;;;;;4.40;0.80;;;;;;;4.93;67.58;101835.09;6180782;23;20086;-73
2022/01/19 23:23:25;;;;;;;3.95;0.73;;;;;;;3.86;72.31;101963.75;6184696;23;20052;-79
2022/01/19 23:26:21;;;;;;;;;;;;;;;;;;;;;
2022/01/19 23:28:46;;;;;;;3.45;0.75;;;;;;;3.84;71.96;101954.97;6184275;23;20077;-77
2022/01/19 23:31:32;;;;;;;1.55;0.75;;;;;;;3.79;71.50;101938.44;6161277;23;20540;-78
2022/01/19 23:33:59;;;;;;;1.63;0.60;;;;;;;3.72;71.33;101934.78;6185782;23;20021;-75
2022/01/19 23:36:28;;;;;;;2.25;0.70;;;;;;;3.73;71.65;101947.31;6156660;23;20005;-76
2022/01/19 23:49:59;;;;;;;3.92;1.38;;;;;;;3.79;71.54;101968.22;6183337;23;20075;-77
2022/01/19 23:52:29;;;;;;;2.78;1.10;;;;;;;3.76;71.97;101952.34;6133459;23;20013;-76
2022/01/19 23:54:56;;;;;;;1.38;0.75;;;;;;;3.75;71.42;101958.78;6181837;23;20001;-77
